sensor_id;sensor_type;location;lat;lon;timestamp;pressure;altitude;pressure_sealevel;temperature;humidity
5966;BME280;3009;43.224;27.976;2023-12-20T00:01:29;100881.13;;;3.08;100.00
5966;BME280;3009;43.224;27.976;2023-12-20T00:03:58;100876.06;;;3.06;100.00
5966;BME280;3009;43.224;27.976;2023-12-20T00:06:27;100870.22;;;3.04;100.00
5966;BME280;3009;43.224;27.976;2023-12-20T00:08:55;100874.09;;;2.96;100.00
5966;BME280;3009;43.224;27.976;2023-12-20T00:11:24;100865.81;;;2.93;100.00
5966;BME280;3009;43.224;27.976;2023-12-20T00:13:53;100864.00;;;2.93;100.00
5966;BME280;3009;43.224;27.976;2023-12-20T00:16:21;100867.72;;;2.97;100.00
5966;BME280;3009;43.224;27.976;2023-12-20T00:18:51;100867.38;;;3.11;100.00
5966;BME280;3009;43.224;27.976;2023-12-20T00:21:21;100869.19;;;3.27;100.00
5966;BME280;3009;43.224;27.976;2023-12-20T00:23:49;100865.78;;;3.32;100.00
5966;BME280;3009;43.224;27.976;2023-12-20T00:26:17;100855.91;;;3.27;100.00
5966;BME280;3009;43.224;27.976;2023-12-20T00:28:46;100853.16;;;3.17;100.00
5966;BME280;3009;43.224;27.976;2023-12-20T00:31:14;100854.63;;;3.08;100.00
5966;BME280;3009;43.224;27.976;2023-12-20T00:33:43;100850.94;;;3.09;100.00
5966;BME280;3009;43.224;27.976;2023-12-20T00:36:14;100845.50;;;2.98;100.00
5966;BME280;3009;43.224;27.976;2023-12-20T00:38:43;100841.19;;;2.92;100.00
5966;BME280;3009;43.224;27.976;2023-12-20T00:41:11;100830.34;;;2.94;100.00
5966;BME280;3009;43.224;27.976;2023-12-20T00:43:40;100835.00;;;3.04;100.00
5966;BME280;3009;43.224;27.976;2023-12-20T00:46:08;100835.53;;;3.06;100.00
5966;BME280;3009;43.224;27.976;2023-12-20T00:48:37;100837.16;;;3.07;100.00
5966;BME280;3009;43.224;27.976;2023-12-20T00:51:06;100837.00;;;3.18;100.00
5966;BME280;3009;43.224;27.976;2023-12-20T00:53:36;100826.72;;;3.22;100.00
5966;BME280;3009;43.224;27.976;2023-12-20T00:56:04;100820.22;;;3.35;100.00
5966;BME280;3009;43.224;27.976;2023-12-20T00:58:33;100827.19;;;3.41;100.00
5966;BME280;3009;43.224;27.976;2023-12-20T01:01:01;100824.78;;;3.40;100.00
5966;BME280;3009;43.224;27.976;2023-12-20T01:03:30;100820.38;;;3.23;100.00
5966;BME280;3009;43.224;27.976;2023-12-20T01:05:58;100818.69;;;3.17;100.00
5966;BME280;3009;43.224;27.976;2023-12-20T01:08:27;100814.38;;;3.11;100.00
5966;BME280;3009;43.224;27.976;2023-12-20T01:10:56;100821.78;;;3.09;100.00
5966;BME280;3009;43.224;27.976;2023-12-20T01:13:25;100806.56;;;3.21;100.00
5966;BME280;3009;43.224;27.976;2023-12-20T01:15:52;100809.53;;;3.25;100.00
5966;BME280;3009;43.224;27.976;2023-12-20T01:18:20;100807.19;;;3.28;100.00
5966;BME280;3009;43.224;27.976;2023-12-20T01:20:49;100795.97;;;3.21;100.00
5966;BME280;3009;43.224;27.976;2023-12-20T01:23:17;100787.16;;;3.15;100.00
5966;BME280;3009;43.224;27.976;2023-12-20T01:25:46;100778.13;;;3.11;100.00
5966;BME280;3009;43.224;27.976;2023-12-20T01:28:16;100780.75;;;3.11;100.00
5966;BME280;3009;43.224;27.976;2023-12-20T01:30:44;100780.19;;;3.09;100.00
5966;BME280;3009;43.224;27.976;2023-12-20T01:33:13;100776.78;;;3.14;100.00
5966;BME280;3009;43.224;27.976;2023-12-20T01:35:41;100774.09;;;3.09;100.00
5966;BME280;3009;43.224;27.976;2023-12-20T01:38:09;100766.53;;;2.95;100.00
5966;BME280;3009;43.224;27.976;2023-12-20T01:40:38;100763.22;;;2.83;100.00
5966;BME280;3009;43.224;27.976;2023-12-20T01:43:08;100758.81;;;2.72;100.00
5966;BME280;3009;43.224;27.976;2023-12-20T01:45:38;100740.97;;;2.62;100.00
5966;BME280;3009;43.224;27.976;2023-12-20T01:48:08;100745.09;;;2.53;100.00
5966;BME280;3009;43.224;27.976;2023-12-20T01:50:37;100741.06;;;2.50;100.00
5966;BME280;3009;43.224;27.976;2023-12-20T01:53:07;100729.13;;;2.47;100.00
5966;BME280;3009;43.224;27.976;2023-12-20T01:55:38;100715.59;;;2.44;100.00
5966;BME280;3009;43.224;27.976;2023-12-20T01:58:14;100719.84;;;2.45;100.00
5966;BME280;3009;43.224;27.976;2023-12-20T02:00:45;100720.63;;;2.45;100.00
5966;BME280;3009;43.224;27.976;2023-12-20T02:03:14;100717.00;;;2.52;100.00
5966;BME280;3009;43.224;27.976;2023-12-20T02:05:44;100715.84;;;2.64;100.00
5966;BME280;3009;43.224;27.976;2023-12-20T02:08:23;100706.31;;;2.63;100.00
5966;BME280;3009;43.224;27.976;2023-12-20T02:10:52;100707.28;;;2.57;100.00
5966;BME280;3009;43.224;27.976;2023-12-20T02:13:21;100696.47;;;2.59;100.00
5966;BME280;3009;43.224;27.976;2023-12-20T02:15:51;100695.84;;;2.74;100.00
5966;BME280;3009;43.224;27.976;2023-12-20T02:18:18;100697.66;;;2.95;100.00
5966;BME280;3009;43.224;27.976;2023-12-20T02:20:47;100688.78;;;3.07;100.00
5966;BME280;3009;43.224;27.976;2023-12-20T02:23:17;100681.97;;;3.16;100.00
5966;BME280;3009;43.224;27.976;2023-12-20T02:25:46;100673.88;;;3.28;100.00
5966;BME280;3009;43.224;27.976;2023-12-20T02:28:14;100671.50;;;3.31;100.00
5966;BME280;3009;43.224;27.976;2023-12-20T02:30:43;100664.59;;;3.30;100.00
5966;BME280;3009;43.224;27.976;2023-12-20T02:33:12;100657.13;;;3.22;100.00
5966;BME280;3009;43.224;27.976;2023-12-20T02:35:42;100652.47;;;3.07;100.00
5966;BME280;3009;43.224;27.976;2023-12-20T02:38:11;100649.72;;;2.97;100.00
5966;BME280;3009;43.224;27.976;2023-12-20T02:40:41;100650.97;;;2.89;100.00
5966;BME280;3009;43.224;27.976;2023-12-20T02:43:15;100652.19;;;2.76;100.00
5966;BME280;3009;43.224;27.976;2023-12-20T02:45:44;100645.81;;;2.77;100.00
5966;BME280;3009;43.224;27.976;2023-12-20T02:48:12;100642.88;;;2.74;100.00
5966;BME280;3009;43.224;27.976;2023-12-20T02:50:41;100643.91;;;2.73;100.00
5966;BME280;3009;43.224;27.976;2023-12-20T02:53:09;100633.69;;;2.81;100.00
5966;BME280;3009;43.224;27.976;2023-12-20T02:55:37;100637.78;;;2.94;100.00
5966;BME280;3009;43.224;27.976;2023-12-20T02:58:07;100630.53;;;3.12;100.00
5966;BME280;3009;43.224;27.976;2023-12-20T03:00:36;100632.78;;;3.25;100.00
5966;BME280;3009;43.224;27.976;2023-12-20T03:03:04;100633.06;;;3.29;100.00
5966;BME280;3009;43.224;27.976;2023-12-20T03:05:33;100628.50;;;3.24;100.00
5966;BME280;3009;43.224;27.976;2023-12-20T03:08:01;100623.78;;;3.26;100.00
5966;BME280;3009;43.224;27.976;2023-12-20T03:10:30;100622.97;;;3.26;100.00
5966;BME280;3009;43.224;27.976;2023-12-20T03:12:58;100618.16;;;3.23;100.00
5966;BME280;3009;43.224;27.976;2023-12-20T03:15:28;100619.09;;;3.06;100.00
5966;BME280;3009;43.224;27.976;2023-12-20T03:17:56;100616.09;;;2.97;100.00
5966;BME280;3009;43.224;27.976;2023-12-20T03:20:26;100612.63;;;2.92;100.00
5966;BME280;3009;43.224;27.976;2023-12-20T03:22:54;100615.94;;;2.82;100.00
5966;BME280;3009;43.224;27.976;2023-12-20T03:25:22;100614.03;;;2.77;100.00
5966;BME280;3009;43.224;27.976;2023-12-20T03:27:51;100620.16;;;2.78;100.00
5966;BME280;3009;43.224;27.976;2023-12-20T03:30:20;100623.28;;;2.75;100.00
5966;BME280;3009;43.224;27.976;2023-12-20T03:32:50;100620.59;;;2.70;100.00
5966;BME280;3009;43.224;27.976;2023-12-20T03:35:18;100623.19;;;2.64;100.00
5966;BME280;3009;43.224;27.976;2023-12-20T03:37:47;100629.25;;;2.60;100.00
5966;BME280;3009;43.224;27.976;2023-12-20T03:40:15;100626.03;;;2.58;100.00
5966;BME280;3009;43.224;27.976;2023-12-20T03:42:44;100617.53;;;2.56;100.00
5966;BME280;3009;43.224;27.976;2023-12-20T03:45:13;100605.06;;;2.78;100.00
5966;BME280;3009;43.224;27.976;2023-12-20T03:47:41;100616.91;;;2.98;100.00
5966;BME280;3009;43.224;27.976;2023-12-20T03:50:12;100611.03;;;2.96;100.00
5966;BME280;3009;43.224;27.976;2023-12-20T03:52:40;100610.00;;;2.70;100.00
5966;BME280;3009;43.224;27.976;2023-12-20T03:55:09;100601.28;;;2.69;100.00
5966;BME280;3009;43.224;27.976;2023-12-20T03:57:37;100603.00;;;2.58;100.00
5966;BME280;3009;43.224;27.976;2023-12-20T04:00:07;100612.41;;;2.49;100.00
5966;BME280;3009;43.224;27.976;2023-12-20T04:02:37;100606.28;;;2.43;100.00
5966;BME280;3009;43.224;27.976;2023-12-20T04:05:07;100598.59;;;2.42;100.00
5966;BME280;3009;43.224;27.976;2023-12-20T04:07:38;100601.00;;;2.43;100.00
5966;BME280;3009;43.224;27.976;2023-12-20T04:10:08;100600.69;;;2.40;100.00
5966;BME280;3009;43.224;27.976;2023-12-20T04:12:36;100602.16;;;2.30;100.00
5966;BME280;3009;43.224;27.976;2023-12-20T04:15:05;100590.47;;;2.26;100.00
5966;BME280;3009;43.224;27.976;2023-12-20T04:17:36;100581.94;;;2.19;100.00
5966;BME280;3009;43.224;27.976;2023-12-20T04:20:06;100582.91;;;2.13;100.00
5966;BME280;3009;43.224;27.976;2023-12-20T04:22:36;100573.09;;;2.08;100.00
5966;BME280;3009;43.224;27.976;2023-12-20T04:25:05;100572.88;;;2.15;100.00
5966;BME280;3009;43.224;27.976;2023-12-20T04:27:34;100576.97;;;2.50;100.00
5966;BME280;3009;43.224;27.976;2023-12-20T04:30:03;100577.88;;;2.88;100.00
5966;BME280;3009;43.224;27.976;2023-12-20T04:32:32;100565.91;;;3.13;100.00
5966;BME280;3009;43.224;27.976;2023-12-20T04:35:00;100562.25;;;3.19;100.00
5966;BME280;3009;43.224;27.976;2023-12-20T04:37:29;100561.03;;;2.99;100.00
5966;BME280;3009;43.224;27.976;2023-12-20T04:39:58;100561.44;;;2.86;100.00
5966;BME280;3009;43.224;27.976;2023-12-20T04:42:27;100558.94;;;2.74;100.00
5966;BME280;3009;43.224;27.976;2023-12-20T04:44:55;100558.34;;;2.67;100.00
5966;BME280;3009;43.224;27.976;2023-12-20T04:47:24;100559.09;;;2.62;100.00
5966;BME280;3009;43.224;27.976;2023-12-20T04:49:52;100555.03;;;2.55;100.00
5966;BME280;3009;43.224;27.976;2023-12-20T04:52:21;100554.44;;;2.47;100.00
5966;BME280;3009;43.224;27.976;2023-12-20T04:54:49;100553.16;;;2.50;100.00
5966;BME280;3009;43.224;27.976;2023-12-20T04:57:19;100553.94;;;2.51;100.00
5966;BME280;3009;43.224;27.976;2023-12-20T04:59:48;100559.81;;;2.53;100.00
5966;BME280;3009;43.224;27.976;2023-12-20T05:02:17;100552.41;;;2.55;100.00
5966;BME280;3009;43.224;27.976;2023-12-20T05:04:45;100557.75;;;2.60;100.00
5966;BME280;3009;43.224;27.976;2023-12-20T05:07:13;100554.78;;;2.56;100.00
5966;BME280;3009;43.224;27.976;2023-12-20T05:09:42;100554.25;;;2.54;100.00
5966;BME280;3009;43.224;27.976;2023-12-20T05:12:10;100547.56;;;2.46;100.00
5966;BME280;3009;43.224;27.976;2023-12-20T05:14:40;100548.06;;;2.43;100.00
5966;BME280;3009;43.224;27.976;2023-12-20T05:17:08;100549.34;;;2.41;100.00
5966;BME280;3009;43.224;27.976;2023-12-20T05:19:37;100536.63;;;2.38;100.00
5966;BME280;3009;43.224;27.976;2023-12-20T05:22:05;100546.91;;;2.34;100.00
5966;BME280;3009;43.224;27.976;2023-12-20T05:24:34;100545.34;;;2.38;100.00
5966;BME280;3009;43.224;27.976;2023-12-20T05:27:03;100546.50;;;2.47;100.00
5966;BME280;3009;43.224;27.976;2023-12-20T05:29:31;100549.50;;;2.56;100.00
5966;BME280;3009;43.224;27.976;2023-12-20T05:32:01;100546.91;;;2.61;100.00
5966;BME280;3009;43.224;27.976;2023-12-20T05:34:31;100546.06;;;2.56;100.00
5966;BME280;3009;43.224;27.976;2023-12-20T05:37:00;100544.72;;;2.53;100.00
5966;BME280;3009;43.224;27.976;2023-12-20T05:39:29;100547.09;;;2.55;100.00
5966;BME280;3009;43.224;27.976;2023-12-20T05:41:58;100548.44;;;2.52;100.00
5966;BME280;3009;43.224;27.976;2023-12-20T05:44:26;100553.47;;;2.54;100.00
5966;BME280;3009;43.224;27.976;2023-12-20T05:46:55;100552.38;;;2.50;100.00
5966;BME280;3009;43.224;27.976;2023-12-20T05:49:24;100547.97;;;2.60;100.00
5966;BME280;3009;43.224;27.976;2023-12-20T05:51:53;100559.16;;;2.68;100.00
5966;BME280;3009;43.224;27.976;2023-12-20T05:54:21;100554.94;;;2.72;100.00
5966;BME280;3009;43.224;27.976;2023-12-20T05:56:50;100551.56;;;2.76;100.00
5966;BME280;3009;43.224;27.976;2023-12-20T05:59:18;100553.47;;;2.81;100.00
5966;BME280;3009;43.224;27.976;2023-12-20T06:01:47;100555.53;;;2.79;100.00
5966;BME280;3009;43.224;27.976;2023-12-20T06:04:16;100557.19;;;2.85;100.00
5966;BME280;3009;43.224;27.976;2023-12-20T06:06:48;100561.53;;;2.96;100.00
5966;BME280;3009;43.224;27.976;2023-12-20T06:09:17;100560.00;;;3.06;100.00
5966;BME280;3009;43.224;27.976;2023-12-20T06:11:46;100559.34;;;3.21;100.00
5966;BME280;3009;43.224;27.976;2023-12-20T06:14:14;100562.34;;;3.34;100.00
5966;BME280;3009;43.224;27.976;2023-12-20T06:16:43;100567.22;;;3.48;100.00
5966;BME280;3009;43.224;27.976;2023-12-20T06:19:12;100567.56;;;3.62;100.00
5966;BME280;3009;43.224;27.976;2023-12-20T06:21:40;100561.53;;;3.71;100.00
5966;BME280;3009;43.224;27.976;2023-12-20T06:24:12;100562.38;;;3.82;100.00
5966;BME280;3009;43.224;27.976;2023-12-20T06:26:41;100564.00;;;3.94;100.00
5966;BME280;3009;43.224;27.976;2023-12-20T06:29:09;100557.94;;;4.03;100.00
5966;BME280;3009;43.224;27.976;2023-12-20T06:31:38;100562.25;;;4.20;100.00
5966;BME280;3009;43.224;27.976;2023-12-20T06:34:06;100558.56;;;4.31;100.00
5966;BME280;3009;43.224;27.976;2023-12-20T06:36:35;100553.56;;;4.45;100.00
5966;BME280;3009;43.224;27.976;2023-12-20T06:39:03;100562.88;;;4.63;100.00
5966;BME280;3009;43.224;27.976;2023-12-20T06:41:33;100568.22;;;4.78;100.00
5966;BME280;3009;43.224;27.976;2023-12-20T06:44:01;100569.84;;;5.00;100.00
5966;BME280;3009;43.224;27.976;2023-12-20T06:46:30;100563.19;;;5.18;100.00
5966;BME280;3009;43.224;27.976;2023-12-20T06:48:58;100557.59;;;5.30;100.00
5966;BME280;3009;43.224;27.976;2023-12-20T06:51:27;100553.59;;;5.38;100.00
5966;BME280;3009;43.224;27.976;2023-12-20T06:53:57;100560.22;;;5.50;100.00
5966;BME280;3009;43.224;27.976;2023-12-20T06:56:27;100551.69;;;5.64;100.00
5966;BME280;3009;43.224;27.976;2023-12-20T06:58:57;100535.13;;;5.88;100.00
5966;BME280;3009;43.224;27.976;2023-12-20T07:01:25;100528.69;;;6.04;100.00
5966;BME280;3009;43.224;27.976;2023-12-20T07:03:53;100517.91;;;6.30;100.00
5966;BME280;3009;43.224;27.976;2023-12-20T07:06:22;100505.53;;;6.49;100.00
5966;BME280;3009;43.224;27.976;2023-12-20T07:08:52;100504.63;;;6.64;100.00
5966;BME280;3009;43.224;27.976;2023-12-20T07:11:21;100503.19;;;6.77;100.00
5966;BME280;3009;43.224;27.976;2023-12-20T07:13:50;100506.84;;;6.86;100.00
5966;BME280;3009;43.224;27.976;2023-12-20T07:16:19;100499.56;;;6.97;100.00
5966;BME280;3009;43.224;27.976;2023-12-20T07:18:48;100489.31;;;7.09;100.00
5966;BME280;3009;43.224;27.976;2023-12-20T07:21:16;100491.09;;;7.19;100.00
5966;BME280;3009;43.224;27.976;2023-12-20T07:23:45;100495.00;;;7.27;100.00
5966;BME280;3009;43.224;27.976;2023-12-20T07:26:14;100483.22;;;7.33;100.00
5966;BME280;3009;43.224;27.976;2023-12-20T07:28:42;100483.59;;;7.45;100.00
5966;BME280;3009;43.224;27.976;2023-12-20T07:31:11;100481.97;;;7.50;100.00
5966;BME280;3009;43.224;27.976;2023-12-20T07:33:40;100475.72;;;7.59;100.00
5966;BME280;3009;43.224;27.976;2023-12-20T07:36:09;100470.31;;;7.65;100.00
5966;BME280;3009;43.224;27.976;2023-12-20T07:38:38;100466.50;;;7.71;100.00
5966;BME280;3009;43.224;27.976;2023-12-20T07:41:09;100462.19;;;7.75;100.00
5966;BME280;3009;43.224;27.976;2023-12-20T07:43:38;100462.47;;;7.73;100.00
5966;BME280;3009;43.224;27.976;2023-12-20T07:46:06;100462.66;;;7.82;100.00
5966;BME280;3009;43.224;27.976;2023-12-20T07:48:35;100464.44;;;7.87;100.00
5966;BME280;3009;43.224;27.976;2023-12-20T07:51:05;100459.91;;;7.87;100.00
5966;BME280;3009;43.224;27.976;2023-12-20T07:53:35;100460.06;;;7.96;100.00
5966;BME280;3009;43.224;27.976;2023-12-20T07:56:13;100459.97;;;8.01;100.00
5966;BME280;3009;43.224;27.976;2023-12-20T07:58:42;100448.00;;;8.18;100.00
5966;BME280;3009;43.224;27.976;2023-12-20T08:01:19;100440.31;;;8.30;100.00
5966;BME280;3009;43.224;27.976;2023-12-20T08:03:49;100437.66;;;8.49;100.00
5966;BME280;3009;43.224;27.976;2023-12-20T08:06:21;100429.38;;;8.64;100.00
5966;BME280;3009;43.224;27.976;2023-12-20T08:08:49;100433.50;;;8.76;100.00
5966;BME280;3009;43.224;27.976;2023-12-20T08:11:28;100429.25;;;8.89;100.00
5966;BME280;3009;43.224;27.976;2023-12-20T08:13:57;100425.38;;;8.95;100.00
5966;BME280;3009;43.224;27.976;2023-12-20T08:16:25;100417.88;;;8.97;100.00
5966;BME280;3009;43.224;27.976;2023-12-20T08:18:54;100420.16;;;9.03;100.00
5966;BME280;3009;43.224;27.976;2023-12-20T08:21:24;100419.25;;;9.08;100.00
5966;BME280;3009;43.224;27.976;2023-12-20T08:23:52;100419.75;;;9.10;100.00
5966;BME280;3009;43.224;27.976;2023-12-20T08:26:21;100408.84;;;9.07;100.00
5966;BME280;3009;43.224;27.976;2023-12-20T08:28:51;100403.81;;;9.19;98.97
5966;BME280;3009;43.224;27.976;2023-12-20T08:31:19;100399.94;;;9.25;97.10
5966;BME280;3009;43.224;27.976;2023-12-20T08:33:48;100393.38;;;9.31;95.50
5966;BME280;3009;43.224;27.976;2023-12-20T08:36:18;100385.66;;;9.44;94.34
5966;BME280;3009;43.224;27.976;2023-12-20T08:38:49;100382.69;;;9.45;92.41
5966;BME280;3009;43.224;27.976;2023-12-20T08:41:18;100382.88;;;9.49;91.52
5966;BME280;3009;43.224;27.976;2023-12-20T08:43:47;100379.28;;;9.53;90.79
5966;BME280;3009;43.224;27.976;2023-12-20T08:46:15;100374.38;;;9.47;89.61
5966;BME280;3009;43.224;27.976;2023-12-20T08:48:44;100358.50;;;9.36;90.30
5966;BME280;3009;43.224;27.976;2023-12-20T08:51:13;100352.78;;;9.29;92.29
5966;BME280;3009;43.224;27.976;2023-12-20T08:53:41;100351.09;;;9.33;93.13
5966;BME280;3009;43.224;27.976;2023-12-20T08:56:14;100347.31;;;9.34;91.60
5966;BME280;3009;43.224;27.976;2023-12-20T08:58:42;100347.69;;;9.42;92.67
5966;BME280;3009;43.224;27.976;2023-12-20T09:01:11;100344.50;;;9.53;93.38
5966;BME280;3009;43.224;27.976;2023-12-20T09:03:40;100331.28;;;9.57;94.65
5966;BME280;3009;43.224;27.976;2023-12-20T09:06:08;100331.50;;;9.61;94.05
5966;BME280;3009;43.224;27.976;2023-12-20T09:08:37;100326.53;;;9.68;94.08
5966;BME280;3009;43.224;27.976;2023-12-20T09:11:06;100322.34;;;9.62;95.59
5966;BME280;3009;43.224;27.976;2023-12-20T09:13:36;100326.75;;;9.57;96.99
5966;BME280;3009;43.224;27.976;2023-12-20T09:16:05;100315.63;;;9.64;95.80
5966;BME280;3009;43.224;27.976;2023-12-20T09:18:33;100306.81;;;9.64;96.38
5966;BME280;3009;43.224;27.976;2023-12-20T09:21:02;100302.72;;;9.44;94.79
5966;BME280;3009;43.224;27.976;2023-12-20T09:23:31;100293.22;;;9.60;96.17
5966;BME280;3009;43.224;27.976;2023-12-20T09:26:00;100295.88;;;9.60;95.33
5966;BME280;3009;43.224;27.976;2023-12-20T09:28:28;100279.13;;;9.68;96.09
5966;BME280;3009;43.224;27.976;2023-12-20T09:30:58;100276.75;;;9.67;95.25
5966;BME280;3009;43.224;27.976;2023-12-20T09:33:27;100270.00;;;9.69;94.62
5966;BME280;3009;43.224;27.976;2023-12-20T09:35:55;100276.63;;;9.72;94.98
5966;BME280;3009;43.224;27.976;2023-12-20T09:38:24;100276.91;;;9.70;95.31
5966;BME280;3009;43.224;27.976;2023-12-20T09:40:52;100268.78;;;9.75;95.78
5966;BME280;3009;43.224;27.976;2023-12-20T09:43:24;100257.53;;;9.65;94.75
5966;BME280;3009;43.224;27.976;2023-12-20T09:46:01;100253.44;;;9.67;96.08
5966;BME280;3009;43.224;27.976;2023-12-20T09:48:34;100244.78;;;9.70;95.67
5966;BME280;3009;43.224;27.976;2023-12-20T09:51:04;100237.25;;;9.72;94.39
5966;BME280;3009;43.224;27.976;2023-12-20T09:53:36;100231.28;;;9.75;93.70
5966;BME280;3009;43.224;27.976;2023-12-20T09:56:07;100228.19;;;9.82;92.07
5966;BME280;3009;43.224;27.976;2023-12-20T09:58:37;100225.84;;;9.89;90.84
5966;BME280;3009;43.224;27.976;2023-12-20T10:01:10;100225.91;;;9.98;92.68
5966;BME280;3009;43.224;27.976;2023-12-20T10:03:39;100222.00;;;10.04;91.34
5966;BME280;3009;43.224;27.976;2023-12-20T10:06:09;100220.16;;;10.14;89.99
5966;BME280;3009;43.224;27.976;2023-12-20T10:08:39;100216.38;;;9.83;90.51
5966;BME280;3009;43.224;27.976;2023-12-20T10:11:07;100215.41;;;9.79;94.28
5966;BME280;3009;43.224;27.976;2023-12-20T10:13:39;100214.69;;;9.96;98.31
5966;BME280;3009;43.224;27.976;2023-12-20T10:16:08;100206.72;;;10.05;97.86
5966;BME280;3009;43.224;27.976;2023-12-20T10:18:38;100212.78;;;9.88;99.94
5966;BME280;3009;43.224;27.976;2023-12-20T10:21:07;100207.50;;;9.74;100.00
5966;BME280;3009;43.224;27.976;2023-12-20T10:23:37;100215.53;;;9.74;100.00
5966;BME280;3009;43.224;27.976;2023-12-20T10:26:07;100214.69;;;9.87;100.00
5966;BME280;3009;43.224;27.976;2023-12-20T10:28:36;100217.38;;;9.96;100.00
5966;BME280;3009;43.224;27.976;2023-12-20T10:31:05;100214.69;;;9.96;100.00
5966;BME280;3009;43.224;27.976;2023-12-20T10:33:34;100210.03;;;9.79;100.00
5966;BME280;3009;43.224;27.976;2023-12-20T10:36:05;100201.09;;;9.84;100.00
5966;BME280;3009;43.224;27.976;2023-12-20T10:38:36;100193.31;;;9.73;100.00
5966;BME280;3009;43.224;27.976;2023-12-20T10:41:08;100186.25;;;9.78;100.00
5966;BME280;3009;43.224;27.976;2023-12-20T10:43:37;100185.53;;;9.86;100.00
5966;BME280;3009;43.224;27.976;2023-12-20T10:46:07;100181.47;;;9.97;100.00
5966;BME280;3009;43.224;27.976;2023-12-20T10:48:38;100172.19;;;10.03;100.00
5966;BME280;3009;43.224;27.976;2023-12-20T10:51:09;100162.25;;;9.95;100.00
5966;BME280;3009;43.224;27.976;2023-12-20T10:53:39;100158.34;;;10.01;100.00
5966;BME280;3009;43.224;27.976;2023-12-20T10:56:12;100158.75;;;9.94;100.00
5966;BME280;3009;43.224;27.976;2023-12-20T10:58:45;100155.78;;;9.96;100.00
5966;BME280;3009;43.224;27.976;2023-12-20T11:01:14;100152.34;;;10.04;100.00
5966;BME280;3009;43.224;27.976;2023-12-20T11:03:45;100147.31;;;10.03;100.00
5966;BME280;3009;43.224;27.976;2023-12-20T11:06:27;100154.25;;;10.13;100.00
5966;BME280;3009;43.224;27.976;2023-12-20T11:09:03;100150.22;;;10.24;100.00
5966;BME280;3009;43.224;27.976;2023-12-20T11:11:42;100143.59;;;10.21;99.95
5966;BME280;3009;43.224;27.976;2023-12-20T11:14:19;100137.75;;;10.28;100.00
5966;BME280;3009;43.224;27.976;2023-12-20T11:16:48;100135.31;;;10.40;100.00
5966;BME280;3009;43.224;27.976;2023-12-20T11:19:21;100128.69;;;10.38;100.00
5966;BME280;3009;43.224;27.976;2023-12-20T11:21:51;100132.00;;;10.43;100.00
5966;BME280;3009;43.224;27.976;2023-12-20T11:24:22;100125.06;;;10.42;100.00
5966;BME280;3009;43.224;27.976;2023-12-20T11:26:55;100125.59;;;10.22;100.00
5966;BME280;3009;43.224;27.976;2023-12-20T11:29:31;100129.59;;;9.93;100.00
5966;BME280;3009;43.224;27.976;2023-12-20T11:32:02;100128.66;;;9.89;100.00
5966;BME280;3009;43.224;27.976;2023-12-20T11:34:32;100123.19;;;10.03;100.00
5966;BME280;3009;43.224;27.976;2023-12-20T11:37:04;100129.19;;;10.00;100.00
5966;BME280;3009;43.224;27.976;2023-12-20T11:39:32;100115.78;;;10.00;100.00
5966;BME280;3009;43.224;27.976;2023-12-20T11:42:04;100120.03;;;10.01;100.00
5966;BME280;3009;43.224;27.976;2023-12-20T11:44:33;100117.84;;;10.03;100.00
5966;BME280;3009;43.224;27.976;2023-12-20T11:47:04;100111.47;;;9.90;100.00
5966;BME280;3009;43.224;27.976;2023-12-20T11:49:32;100111.13;;;9.83;100.00
5966;BME280;3009;43.224;27.976;2023-12-20T11:52:02;100110.06;;;9.52;100.00
5966;BME280;3009;43.224;27.976;2023-12-20T11:54:31;100110.34;;;9.42;100.00
5966;BME280;3009;43.224;27.976;2023-12-20T11:56:59;100099.41;;;9.61;100.00
5966;BME280;3009;43.224;27.976;2023-12-20T11:59:28;100098.25;;;9.85;100.00
5966;BME280;3009;43.224;27.976;2023-12-20T12:01:58;100098.44;;;9.97;100.00
5966;BME280;3009;43.224;27.976;2023-12-20T12:04:28;100086.50;;;10.12;100.00
5966;BME280;3009;43.224;27.976;2023-12-20T12:06:57;100075.91;;;9.89;100.00
5966;BME280;3009;43.224;27.976;2023-12-20T12:09:26;100081.75;;;10.00;100.00
5966;BME280;3009;43.224;27.976;2023-12-20T12:11:55;100077.09;;;9.74;100.00
5966;BME280;3009;43.224;27.976;2023-12-20T12:14:24;100074.13;;;9.45;100.00
5966;BME280;3009;43.224;27.976;2023-12-20T12:16:52;100071.03;;;9.60;100.00
5966;BME280;3009;43.224;27.976;2023-12-20T12:19:22;100068.09;;;9.70;100.00
5966;BME280;3009;43.224;27.976;2023-12-20T12:21:51;100058.94;;;9.63;100.00
5966;BME280;3009;43.224;27.976;2023-12-20T12:24:20;100059.44;;;9.73;100.00
5966;BME280;3009;43.224;27.976;2023-12-20T12:26:51;100053.47;;;9.68;100.00
5966;BME280;3009;43.224;27.976;2023-12-20T12:29:20;100048.81;;;9.51;100.00
5966;BME280;3009;43.224;27.976;2023-12-20T12:31:48;100045.44;;;9.68;100.00
5966;BME280;3009;43.224;27.976;2023-12-20T12:34:17;100034.72;;;9.76;100.00
5966;BME280;3009;43.224;27.976;2023-12-20T12:36:46;100026.84;;;9.71;100.00
5966;BME280;3009;43.224;27.976;2023-12-20T12:39:18;100022.28;;;9.72;100.00
5966;BME280;3009;43.224;27.976;2023-12-20T12:41:47;100031.66;;;9.52;100.00
5966;BME280;3009;43.224;27.976;2023-12-20T12:44:17;100024.31;;;9.66;100.00
5966;BME280;3009;43.224;27.976;2023-12-20T12:46:46;100031.81;;;9.55;100.00
5966;BME280;3009;43.224;27.976;2023-12-20T12:49:17;100023.97;;;9.59;100.00
5966;BME280;3009;43.224;27.976;2023-12-20T12:51:45;100029.66;;;9.57;100.00
5966;BME280;3009;43.224;27.976;2023-12-20T12:54:14;100030.13;;;9.28;100.00
5966;BME280;3009;43.224;27.976;2023-12-20T12:56:43;100017.69;;;9.23;100.00
5966;BME280;3009;43.224;27.976;2023-12-20T12:59:13;100013.69;;;9.12;100.00
5966;BME280;3009;43.224;27.976;2023-12-20T13:01:43;100014.94;;;9.15;100.00
5966;BME280;3009;43.224;27.976;2023-12-20T13:04:12;100011.06;;;9.21;100.00
5966;BME280;3009;43.224;27.976;2023-12-20T13:06:40;100009.69;;;9.32;100.00
5966;BME280;3009;43.224;27.976;2023-12-20T13:09:09;100005.47;;;9.40;100.00
5966;BME280;3009;43.224;27.976;2023-12-20T13:11:37;100002.50;;;9.42;100.00